createdAt,value
2018-07-07T00:01:05.836Z,17.41
2018-07-07T00:06:00.313Z,17.43
2018-07-07T00:10:58.948Z,17.49
2018-07-07T00:15:53.481Z,17.48
2018-07-07T00:20:47.957Z,17.49
2018-07-07T00:25:42.425Z,17.49
2018-07-07T00:30:36.983Z,17.44
2018-07-07T00:35:31.495Z,17.40
2018-07-07T00:40:25.988Z,17.41
2018-07-07T00:45:20.498Z,17.52
2018-07-07T00:50:15.028Z,17.47
2018-07-07T00:55:09.581Z,17.38
2018-07-07T01:00:04.165Z,17.40
2018-07-07T01:04:58.719Z,17.31
2018-07-07T01:09:53.313Z,17.23
2018-07-07T01:14:48.189Z,17.16
2018-07-07T01:19:42.688Z,17.21
2018-07-07T01:24:37.241Z,17.13
2018-07-07T01:29:31.753Z,17.22
2018-07-07T01:34:26.248Z,17.10
2018-07-07T01:39:20.849Z,16.98
2018-07-07T01:44:15.320Z,16.93
2018-07-07T01:49:09.804Z,16.95
2018-07-07T01:54:04.380Z,17.00
2018-07-07T01:58:58.961Z,17.05
2018-07-07T02:03:53.553Z,17.14
2018-07-07T02:08:48.041Z,17.09
2018-07-07T02:13:42.609Z,17.05
2018-07-07T02:18:37.125Z,17.10
2018-07-07T02:23:31.636Z,17.22
2018-07-07T02:28:26.128Z,17.17
2018-07-07T02:33:20.593Z,17.17
2018-07-07T02:38:15.086Z,17.24
2018-07-07T02:43:09.631Z,17.28
2018-07-07T02:48:04.111Z,17.30
2018-07-07T02:52:58.561Z,17.35
2018-07-07T02:57:53.029Z,17.41
2018-07-07T03:02:47.457Z,17.43
2018-07-07T03:07:41.943Z,17.48
2018-07-07T03:12:36.413Z,17.47
2018-07-07T03:17:31.196Z,17.55
2018-07-07T03:22:25.684Z,17.61
2018-07-07T03:27:20.162Z,17.49
2018-07-07T03:32:14.650Z,17.37
2018-07-07T03:37:09.170Z,17.31
2018-07-07T03:42:03.710Z,17.30
2018-07-07T03:46:58.200Z,17.31
2018-07-07T03:51:52.701Z,17.35
2018-07-07T03:56:47.212Z,17.39
2018-07-07T04:01:41.696Z,17.39
2018-07-07T04:06:36.193Z,17.49
2018-07-07T04:11:30.757Z,17.47
2018-07-07T04:16:25.252Z,17.41
2018-07-07T04:21:19.798Z,17.44
2018-07-07T04:26:14.002Z,17.55
2018-07-07T04:31:08.521Z,17.52
2018-07-07T04:36:03.031Z,17.53
2018-07-07T04:40:57.564Z,17.63
2018-07-07T04:45:52.095Z,17.78
2018-07-07T04:50:46.298Z,17.78
2018-07-07T04:55:40.788Z,17.78
2018-07-07T05:00:35.358Z,17.70
2018-07-07T05:05:29.917Z,17.69
2018-07-07T05:10:24.474Z,17.78
2018-07-07T05:15:19.040Z,17.94
2018-07-07T05:20:13.685Z,18.08
2018-07-07T05:25:08.382Z,18.28
2018-07-07T05:30:02.961Z,18.43
2018-07-07T05:34:57.459Z,18.64
2018-07-07T05:39:52.039Z,19.06
2018-07-07T05:44:46.302Z,19.62
2018-07-07T05:49:40.857Z,20.54
2018-07-07T05:54:35.477Z,21.26
2018-07-07T05:59:30.248Z,21.85
2018-07-07T06:04:24.842Z,22.02
2018-07-07T06:09:19.383Z,22.53
2018-07-07T06:14:14.011Z,22.25
2018-07-07T06:19:08.951Z,22.18
2018-07-07T06:24:03.664Z,22.27
2018-07-07T06:28:58.343Z,22.10
2018-07-07T06:33:53.033Z,21.81
2018-07-07T06:38:47.641Z,22.07
2018-07-07T06:43:42.290Z,22.52
2018-07-07T06:48:36.532Z,22.21
2018-07-07T06:53:30.883Z,22.56
2018-07-07T06:58:25.786Z,22.90
2018-07-07T07:03:20.411Z,22.93
2018-07-07T07:08:15.015Z,23.19
2018-07-07T07:13:09.609Z,23.48
2018-07-07T07:18:04.413Z,23.56
2018-07-07T07:22:58.965Z,23.75
2018-07-07T07:27:53.809Z,23.18
2018-07-07T07:32:48.606Z,22.87
2018-07-07T07:37:43.453Z,23.60
2018-07-07T07:42:38.462Z,23.68
2018-07-07T07:47:33.093Z,23.55
2018-07-07T07:52:27.768Z,23.26
2018-07-07T07:57:22.441Z,22.99
2018-07-07T08:02:17.258Z,22.78
2018-07-07T08:07:11.965Z,23.20
2018-07-07T08:12:06.869Z,22.68
2018-07-07T08:17:01.485Z,23.17
2018-07-07T08:21:56.190Z,23.80
2018-07-07T08:26:50.709Z,24.14
2018-07-07T08:31:45.260Z,23.46
2018-07-07T08:36:39.821Z,23.41
2018-07-07T08:41:34.605Z,23.38
2018-07-07T08:46:29.707Z,23.54
2018-07-07T08:51:24.270Z,22.98
2018-07-07T08:56:18.865Z,23.15
2018-07-07T09:01:13.606Z,23.65
2018-07-07T09:06:08.471Z,23.80
2018-07-07T09:11:03.193Z,24.08
2018-07-07T09:15:58.345Z,24.48
2018-07-07T09:20:52.932Z,24.62
2018-07-07T09:25:47.536Z,25.00
2018-07-07T09:30:42.098Z,25.30
2018-07-07T09:35:37.048Z,25.32
2018-07-07T09:40:31.594Z,25.62
2018-07-07T09:45:26.392Z,25.70
2018-07-07T09:50:20.956Z,25.98
2018-07-07T09:55:15.218Z,26.13
2018-07-07T10:00:14.742Z,25.87
2018-07-07T10:05:09.504Z,26.22
2018-07-07T10:10:04.134Z,26.41
2018-07-07T10:14:59.561Z,26.22
2018-07-07T10:19:54.136Z,26.09
2018-07-07T10:24:49.649Z,26.20
2018-07-07T10:29:43.903Z,26.68
2018-07-07T10:34:38.509Z,27.22
2018-07-07T10:39:33.033Z,27.26
2018-07-07T10:44:27.577Z,27.57
2018-07-07T10:49:22.262Z,27.07
2018-07-07T10:54:16.945Z,26.71
2018-07-07T10:59:11.544Z,26.68
2018-07-07T11:04:06.125Z,27.40
2018-07-07T11:09:00.774Z,26.97
2018-07-07T11:13:55.352Z,27.49
2018-07-07T11:18:50.053Z,27.94
2018-07-07T11:23:45.268Z,27.51
2018-07-07T11:28:40.837Z,27.89
2018-07-07T11:33:35.414Z,28.30
2018-07-07T11:38:30.029Z,28.65
2018-07-07T11:43:24.662Z,28.41
2018-07-07T11:48:19.688Z,28.18
2018-07-07T11:53:14.340Z,28.29
2018-07-07T11:58:09.036Z,28.42
2018-07-07T12:03:03.657Z,27.41
2018-07-07T12:08:13.315Z,27.45
2018-07-07T12:12:53.845Z,27.77
2018-07-07T12:17:48.585Z,28.47
2018-07-07T12:22:42.914Z,28.74
2018-07-07T12:27:37.799Z,28.01
2018-07-07T12:32:32.409Z,28.59
2018-07-07T12:37:27.031Z,28.95
2018-07-07T12:42:21.805Z,29.37
2018-07-07T12:47:16.443Z,29.44
2018-07-07T12:52:11.167Z,29.75
2018-07-07T12:57:06.038Z,29.98
2018-07-07T13:02:00.504Z,30.05
2018-07-07T13:06:55.256Z,29.97
2018-07-07T13:11:51.119Z,30.26
2018-07-07T13:16:45.897Z,30.00
2018-07-07T13:21:41.467Z,29.93
2018-07-07T13:26:36.450Z,29.10
2018-07-07T13:31:31.873Z,28.79
2018-07-07T13:36:26.182Z,28.75
2018-07-07T13:41:21.107Z,28.28
2018-07-07T13:46:15.849Z,28.86
2018-07-07T13:51:11.266Z,29.09
2018-07-07T13:56:06.152Z,28.73
2018-07-07T14:01:00.941Z,28.99
2018-07-07T14:05:55.444Z,28.56
2018-07-07T14:10:50.013Z,28.69
2018-07-07T14:15:46.218Z,28.15
2018-07-07T14:20:40.873Z,27.75
2018-07-07T14:25:35.669Z,26.78
2018-07-07T14:30:30.507Z,27.34
2018-07-07T14:35:25.398Z,27.67
2018-07-07T14:40:21.098Z,27.50
2018-07-07T14:45:18.529Z,26.44
2018-07-07T14:50:13.925Z,26.51
2018-07-07T14:55:09.420Z,26.32
2018-07-07T15:00:04.145Z,25.89
2018-07-07T15:04:58.892Z,26.14
2018-07-07T15:09:53.465Z,25.99
2018-07-07T15:14:48.137Z,26.07
2018-07-07T15:19:42.965Z,26.13
2018-07-07T15:24:37.574Z,25.92
2018-07-07T15:29:32.329Z,25.95
2018-07-07T15:34:27.553Z,26.30
2018-07-07T15:39:22.532Z,26.57
2018-07-07T15:44:17.660Z,26.52
2018-07-07T15:49:12.719Z,26.73
2018-07-07T15:54:07.061Z,26.80
2018-07-07T15:59:01.613Z,26.76
2018-07-07T16:03:57.737Z,27.05
2018-07-07T16:08:52.465Z,27.46
2018-07-07T16:13:49.018Z,27.78
2018-07-07T16:18:44.056Z,27.92
2018-07-07T16:23:38.360Z,27.91
2018-07-07T16:28:33.224Z,27.90
2018-07-07T16:33:28.025Z,27.97
2018-07-07T16:38:22.561Z,28.24
2018-07-07T16:43:17.406Z,28.31
2018-07-07T16:48:12.921Z,28.35
2018-07-07T16:53:07.575Z,28.06
2018-07-07T16:58:02.178Z,28.09
2018-07-07T17:02:56.726Z,27.71
2018-07-07T17:07:51.394Z,27.79
2018-07-07T17:12:45.949Z,27.73
2018-07-07T17:17:40.625Z,27.47
2018-07-07T17:22:35.813Z,27.69
2018-07-07T17:27:30.516Z,27.64
2018-07-07T17:32:25.342Z,27.41
2018-07-07T17:37:21.750Z,27.20
2018-07-07T17:42:16.652Z,27.11
2018-07-07T17:47:11.271Z,26.95
2018-07-07T17:52:05.538Z,27.08
2018-07-07T17:57:00.839Z,26.79
2018-07-07T18:01:55.524Z,26.69
2018-07-07T18:06:51.273Z,26.73
2018-07-07T18:11:45.881Z,26.60
2018-07-07T18:16:40.120Z,26.51
2018-07-07T18:21:35.305Z,26.51
2018-07-07T18:26:29.995Z,26.57
2018-07-07T18:31:24.872Z,26.63
2018-07-07T18:36:19.446Z,26.68
2018-07-07T18:41:14.113Z,26.58
2018-07-07T18:46:09.253Z,26.54
2018-07-07T18:51:05.009Z,26.60
2018-07-07T18:55:59.689Z,27.14
2018-07-07T19:00:54.357Z,27.06
2018-07-07T19:05:48.570Z,26.22
2018-07-07T19:10:43.203Z,25.64
2018-07-07T19:15:37.753Z,25.22
2018-07-07T19:20:37.569Z,24.90
2018-07-07T19:25:37.279Z,24.59
2018-07-07T19:30:31.627Z,24.37
2018-07-07T19:35:30.914Z,24.15
2018-07-07T19:40:26.006Z,23.87
2018-07-07T19:45:20.684Z,23.64
2018-07-07T19:50:15.343Z,23.46
2018-07-07T19:55:10.361Z,23.30
2018-07-07T20:00:05.186Z,23.16
2018-07-07T20:04:59.769Z,23.09
2018-07-07T20:09:54.640Z,22.79
2018-07-07T20:14:49.653Z,22.53
2018-07-07T20:21:04.241Z,22.32
2018-07-07T20:26:04.639Z,22.09
2018-07-07T20:30:59.656Z,21.92
2018-07-07T20:35:54.461Z,21.84
2018-07-07T20:40:49.116Z,21.88
2018-07-07T20:45:43.813Z,21.74
2018-07-07T20:50:38.614Z,21.65
2018-07-07T20:55:33.351Z,21.51
2018-07-07T21:00:28.060Z,21.37
2018-07-07T21:05:22.597Z,21.29
2018-07-07T21:10:17.174Z,21.21
2018-07-07T21:15:11.708Z,21.16
2018-07-07T21:20:06.799Z,21.12
2018-07-07T21:25:01.673Z,21.04
2018-07-07T21:29:56.333Z,20.98
2018-07-07T21:34:50.947Z,20.95
2018-07-07T21:39:45.543Z,20.81
2018-07-07T21:44:40.145Z,20.75
2018-07-07T21:49:34.811Z,20.58
2018-07-07T21:54:29.027Z,20.38
2018-07-07T21:59:24.364Z,20.28
2018-07-07T22:04:24.261Z,20.12
2018-07-07T22:09:18.800Z,20.01
2018-07-07T22:14:13.365Z,19.93
2018-07-07T22:19:07.960Z,19.85
2018-07-07T22:24:02.940Z,19.85
2018-07-07T22:28:57.533Z,19.87
2018-07-07T22:33:52.144Z,19.84
2018-07-07T22:38:51.963Z,19.81
2018-07-07T22:43:47.598Z,19.80
2018-07-07T22:48:42.145Z,19.74
2018-07-07T22:53:36.778Z,19.71
2018-07-07T22:58:31.350Z,19.67
2018-07-07T23:03:25.925Z,19.61
2018-07-07T23:08:20.455Z,19.60
2018-07-07T23:13:15.017Z,19.57
2018-07-07T23:18:09.745Z,19.49
2018-07-07T23:23:04.345Z,19.45
2018-07-07T23:27:58.907Z,19.48
2018-07-07T23:32:53.540Z,19.48
2018-07-07T23:37:48.068Z,19.43
2018-07-07T23:42:42.674Z,19.31
2018-07-07T23:47:37.333Z,19.20
2018-07-07T23:52:31.935Z,19.11
2018-07-07T23:57:26.489Z,19.01
